createdAt,value
2023-05-21T00:00:02.746Z,14.60
2023-05-21T00:01:03.403Z,14.60
2023-05-21T00:02:02.981Z,14.60
2023-05-21T00:03:02.699Z,14.60
2023-05-21T00:04:03.543Z,14.60
2023-05-21T00:05:03.367Z,14.60
2023-05-21T00:06:02.961Z,14.60
2023-05-21T00:07:03.166Z,14.60
2023-05-21T00:08:03.254Z,14.60
2023-05-21T00:09:03.273Z,14.60
2023-05-21T00:10:03.035Z,14.60
2023-05-21T00:11:02.693Z,14.50
2023-05-21T00:12:03.026Z,14.50
2023-05-21T00:13:04.515Z,14.50
2023-05-21T00:14:03.579Z,14.50
2023-05-21T00:15:03.587Z,14.50
2023-05-21T00:16:03.132Z,14.50
2023-05-21T00:17:03.276Z,14.50
2023-05-21T00:18:03.313Z,14.50
2023-05-21T00:19:03.663Z,14.50
2023-05-21T00:20:03.441Z,14.50
2023-05-21T00:21:03.181Z,14.50
2023-05-21T00:22:02.836Z,14.50
2023-05-21T00:23:03.389Z,14.40
2023-05-21T00:24:03.047Z,14.40
2023-05-21T00:25:03.049Z,14.40
2023-05-21T00:26:02.758Z,14.40
2023-05-21T00:27:03.500Z,14.40
2023-05-21T00:28:03.158Z,14.40
2023-05-21T00:29:03.216Z,14.40
2023-05-21T00:30:03.168Z,14.40
2023-05-21T00:31:02.715Z,14.40
2023-05-21T00:32:03.336Z,14.40
2023-05-21T00:33:02.918Z,14.40
2023-05-21T00:34:03.221Z,14.30
2023-05-21T00:35:02.823Z,14.30
2023-05-21T00:36:03.543Z,14.30
2023-05-21T00:37:02.842Z,14.30
2023-05-21T00:38:02.768Z,14.30
2023-05-21T00:39:03.441Z,14.30
2023-05-21T00:40:03.433Z,14.30
2023-05-21T00:41:03.583Z,14.30
2023-05-21T00:42:03.191Z,14.30
2023-05-21T00:43:02.724Z,14.30
2023-05-21T00:44:03.350Z,14.30
2023-05-21T00:45:03.212Z,14.30
2023-05-21T00:46:03.226Z,14.30
2023-05-21T00:47:02.852Z,14.20
2023-05-21T00:48:03.467Z,14.20
2023-05-21T00:49:03.579Z,14.20
2023-05-21T00:50:02.593Z,14.20
2023-05-21T00:51:02.673Z,14.20
2023-05-21T00:52:03.222Z,14.20
2023-05-21T00:53:02.731Z,14.20
2023-05-21T00:54:03.469Z,14.10
2023-05-21T00:55:03.186Z,14.10
2023-05-21T00:56:03.244Z,14.10
2023-05-21T00:57:02.882Z,14.10
2023-05-21T00:58:02.892Z,14.10
2023-05-21T00:59:03.385Z,14.10
2023-05-21T01:00:03.249Z,14.00
2023-05-21T01:01:03.375Z,14.00
2023-05-21T01:02:03.088Z,14.00
2023-05-21T01:03:02.835Z,14.00
2023-05-21T01:04:03.413Z,14.00
2023-05-21T01:05:03.019Z,14.00
2023-05-21T01:06:03.525Z,14.00
2023-05-21T01:07:03.258Z,14.00
2023-05-21T01:08:02.929Z,13.90
2023-05-21T01:09:04.928Z,13.90
2023-05-21T01:10:03.383Z,13.90
2023-05-21T01:11:02.989Z,13.90
2023-05-21T01:12:03.129Z,13.90
2023-05-21T01:13:02.692Z,13.90
2023-05-21T01:14:03.343Z,13.90
2023-05-21T01:15:02.880Z,13.80
2023-05-21T01:16:02.743Z,13.80
2023-05-21T01:17:02.852Z,13.80
2023-05-21T01:18:03.487Z,13.80
2023-05-21T01:19:03.305Z,13.80
2023-05-21T01:20:03.402Z,13.80
2023-05-21T01:21:02.931Z,13.70
2023-05-21T01:22:02.989Z,13.70
2023-05-21T01:23:02.946Z,13.70
2023-05-21T01:24:03.539Z,13.70
2023-05-21T01:25:03.597Z,13.70
2023-05-21T01:26:03.210Z,13.70
2023-05-21T01:27:02.982Z,13.70
2023-05-21T01:28:03.458Z,13.70
2023-05-21T01:29:02.970Z,13.60
2023-05-21T01:30:03.544Z,13.60
2023-05-21T01:31:03.172Z,13.60
2023-05-21T01:32:02.730Z,13.60
2023-05-21T01:33:02.800Z,13.60
2023-05-21T01:34:02.731Z,13.60
2023-05-21T01:35:03.003Z,13.60
2023-05-21T01:36:03.617Z,13.60
2023-05-21T01:37:03.358Z,13.60
2023-05-21T01:38:03.003Z,13.50
2023-05-21T01:39:03.432Z,13.50
2023-05-21T01:40:02.965Z,13.50
2023-05-21T01:41:02.663Z,13.50
2023-05-21T01:42:03.397Z,13.50
2023-05-21T01:43:03.437Z,13.50
2023-05-21T01:44:03.385Z,13.50
2023-05-21T01:45:03.415Z,13.50
2023-05-21T01:46:03.378Z,13.50
2023-05-21T01:47:03.448Z,13.40
2023-05-21T01:48:03.586Z,13.40
2023-05-21T01:49:03.115Z,13.40
2023-05-21T01:50:03.092Z,13.40
2023-05-21T01:51:02.821Z,13.40
2023-05-21T01:52:02.930Z,13.40
2023-05-21T01:53:03.330Z,13.40
2023-05-21T01:54:03.089Z,13.40
2023-05-21T01:55:03.146Z,13.40
2023-05-21T01:56:03.611Z,13.40
2023-05-21T01:57:03.586Z,13.30
2023-05-21T01:58:03.252Z,13.30
2023-05-21T01:59:02.921Z,13.30
2023-05-21T02:00:03.550Z,13.30
2023-05-21T02:01:03.057Z,13.30
2023-05-21T02:02:03.583Z,13.30
2023-05-21T02:03:02.897Z,13.20
2023-05-21T02:04:03.220Z,13.20
2023-05-21T02:05:03.042Z,13.20
2023-05-21T02:06:02.903Z,13.20
2023-05-21T02:07:03.476Z,13.20
2023-05-21T02:08:03.208Z,13.10
2023-05-21T02:09:02.766Z,13.10
2023-05-21T02:10:03.355Z,13.10
2023-05-21T02:11:03.378Z,13.10
2023-05-21T02:12:03.466Z,13.10
2023-05-21T02:13:03.056Z,13.10
2023-05-21T02:14:02.704Z,13.10
2023-05-21T02:15:03.199Z,13.00
2023-05-21T02:16:03.218Z,13.00
2023-05-21T02:17:02.866Z,13.00
2023-05-21T02:18:02.811Z,13.00
2023-05-21T02:19:02.760Z,13.00
2023-05-21T02:20:03.123Z,13.00
2023-05-21T02:21:02.701Z,13.00
2023-05-21T02:22:03.488Z,13.00
2023-05-21T02:23:03.019Z,13.00
2023-05-21T02:24:03.589Z,13.00
2023-05-21T02:25:02.686Z,13.00
2023-05-21T02:26:03.212Z,13.00
2023-05-21T02:27:03.224Z,13.00
2023-05-21T02:28:02.970Z,13.00
2023-05-21T02:29:03.545Z,13.00
2023-05-21T02:30:03.573Z,13.00
2023-05-21T02:31:03.276Z,13.00
2023-05-21T02:32:02.961Z,13.00
2023-05-21T02:33:03.572Z,13.00
2023-05-21T02:34:03.167Z,13.00
2023-05-21T02:35:02.791Z,13.00
2023-05-21T02:36:02.849Z,13.00
2023-05-21T02:37:03.624Z,13.00
2023-05-21T02:38:02.743Z,13.00
2023-05-21T02:39:03.317Z,13.00
2023-05-21T02:40:02.958Z,13.00
2023-05-21T02:41:02.922Z,13.00
2023-05-21T02:42:03.557Z,13.00
2023-05-21T02:43:02.731Z,13.00
2023-05-21T02:44:03.280Z,13.00
2023-05-21T02:45:02.838Z,13.00
2023-05-21T02:46:03.147Z,13.00
2023-05-21T02:47:02.892Z,13.00
2023-05-21T02:48:03.679Z,13.00
2023-05-21T02:49:02.751Z,12.90
2023-05-21T02:50:03.355Z,12.90
2023-05-21T02:51:03.246Z,12.90
2023-05-21T02:52:03.163Z,12.90
2023-05-21T02:53:02.640Z,12.90
2023-05-21T02:54:02.823Z,12.90
2023-05-21T02:55:02.862Z,12.90
2023-05-21T02:56:02.938Z,12.90
2023-05-21T02:57:03.571Z,12.90
2023-05-21T02:58:03.053Z,12.90
2023-05-21T02:59:03.184Z,12.90
2023-05-21T03:00:02.798Z,12.90
2023-05-21T03:01:03.390Z,12.90
2023-05-21T03:02:03.570Z,12.80
2023-05-21T03:03:03.324Z,12.90
2023-05-21T03:04:03.190Z,12.80
2023-05-21T03:05:02.893Z,12.80
2023-05-21T03:06:03.071Z,12.80
2023-05-21T03:07:03.020Z,12.80
2023-05-21T03:08:03.083Z,12.80
2023-05-21T03:09:03.024Z,12.70
2023-05-21T03:10:03.138Z,12.70
2023-05-21T03:11:03.266Z,12.70
2023-05-21T03:12:02.959Z,12.70
2023-05-21T03:13:02.705Z,12.70
2023-05-21T03:14:03.227Z,12.70
2023-05-21T03:15:03.322Z,12.70
2023-05-21T03:16:03.180Z,12.60
2023-05-21T03:17:02.887Z,12.60
2023-05-21T03:18:03.516Z,12.60
2023-05-21T03:19:02.817Z,12.60
2023-05-21T03:20:02.821Z,12.60
2023-05-21T03:21:03.468Z,12.60
2023-05-21T03:22:03.123Z,12.50
2023-05-21T03:23:02.909Z,12.50
2023-05-21T03:24:02.801Z,12.60
2023-05-21T03:25:02.655Z,12.50
2023-05-21T03:26:03.320Z,12.50
2023-05-21T03:27:02.983Z,12.50
2023-05-21T03:28:02.662Z,12.50
2023-05-21T03:29:03.328Z,12.50
2023-05-21T03:30:03.920Z,12.50
2023-05-21T03:31:02.814Z,12.50
2023-05-21T03:32:03.359Z,12.50
2023-05-21T03:33:03.142Z,12.50
2023-05-21T03:34:03.497Z,12.50
2023-05-21T03:35:03.226Z,12.50
2023-05-21T03:36:02.907Z,12.50
2023-05-21T03:37:02.963Z,12.50
2023-05-21T03:38:02.736Z,12.50
2023-05-21T03:39:03.472Z,12.50
2023-05-21T03:40:03.188Z,12.50
2023-05-21T03:41:03.324Z,12.50
2023-05-21T03:42:03.073Z,12.50
2023-05-21T03:43:02.956Z,12.50
2023-05-21T03:44:02.744Z,12.50
2023-05-21T03:45:02.709Z,12.50
2023-05-21T03:46:03.285Z,12.50
2023-05-21T03:47:03.694Z,12.50
2023-05-21T03:48:02.780Z,12.50
2023-05-21T03:49:02.944Z,12.50
2023-05-21T03:50:03.117Z,12.50
2023-05-21T03:51:02.945Z,12.50
2023-05-21T03:52:02.657Z,12.50
2023-05-21T03:53:03.423Z,12.50
2023-05-21T03:54:03.461Z,12.50
2023-05-21T03:55:03.175Z,12.50
2023-05-21T03:56:02.835Z,12.50
2023-05-21T03:57:03.591Z,12.50
2023-05-21T03:58:03.542Z,12.50
2023-05-21T03:59:03.557Z,12.50
2023-05-21T04:00:03.134Z,12.50
2023-05-21T04:01:03.232Z,12.50
2023-05-21T04:02:02.909Z,12.50
2023-05-21T04:03:03.614Z,12.50
2023-05-21T04:04:03.312Z,12.50
2023-05-21T04:05:03.078Z,12.50
2023-05-21T04:06:02.783Z,12.50
2023-05-21T04:07:02.753Z,12.50
2023-05-21T04:08:03.458Z,12.50
2023-05-21T04:09:02.931Z,12.50
2023-05-21T04:10:03.068Z,12.50
2023-05-21T04:11:02.711Z,12.40
2023-05-21T04:12:03.419Z,12.40
2023-05-21T04:13:03.128Z,12.40
2023-05-21T04:14:02.703Z,12.40
2023-05-21T04:15:03.370Z,12.40
2023-05-21T04:16:03.136Z,12.40
2023-05-21T04:17:02.782Z,12.40
2023-05-21T04:18:02.928Z,12.40
2023-05-21T04:19:03.157Z,12.50
2023-05-21T04:20:02.719Z,12.50
2023-05-21T04:21:02.935Z,12.50
2023-05-21T04:22:03.615Z,12.50
2023-05-21T04:23:03.344Z,12.50
2023-05-21T04:24:03.003Z,12.50
2023-05-21T04:25:03.345Z,12.50
2023-05-21T04:26:03.065Z,12.60
2023-05-21T04:27:03.512Z,12.60
2023-05-21T04:28:03.109Z,12.60
2023-05-21T04:29:02.652Z,12.60
2023-05-21T04:30:03.411Z,12.60
2023-05-21T04:31:02.979Z,12.60
2023-05-21T04:32:03.574Z,12.60
2023-05-21T04:33:03.361Z,12.60
2023-05-21T04:34:03.509Z,12.70
2023-05-21T04:35:03.459Z,12.70
2023-05-21T04:36:03.574Z,12.70
2023-05-21T04:37:03.157Z,12.70
2023-05-21T04:38:04.289Z,12.70
2023-05-21T04:39:03.639Z,12.70
2023-05-21T04:40:03.199Z,12.80
2023-05-21T04:41:02.749Z,12.80
2023-05-21T04:42:03.571Z,12.80
2023-05-21T04:43:03.534Z,12.80
2023-05-21T04:44:03.202Z,12.80
2023-05-21T04:45:02.816Z,12.80
2023-05-21T04:46:03.438Z,12.90
2023-05-21T04:47:03.226Z,12.90
2023-05-21T04:48:03.695Z,12.90
2023-05-21T04:49:03.277Z,12.90
2023-05-21T04:50:02.847Z,13.00
2023-05-21T04:51:03.464Z,13.00
2023-05-21T04:52:03.626Z,13.00
2023-05-21T04:53:03.376Z,13.00
2023-05-21T04:54:03.479Z,13.00
2023-05-21T04:55:03.460Z,13.10
2023-05-21T04:56:03.233Z,13.10
2023-05-21T04:57:03.334Z,13.10
2023-05-21T04:58:02.904Z,13.20
2023-05-21T04:59:04.684Z,13.20
2023-05-21T05:00:03.539Z,13.20
2023-05-21T05:01:03.422Z,13.30
2023-05-21T05:02:03.189Z,13.30
2023-05-21T05:03:02.925Z,13.30
2023-05-21T05:04:03.596Z,13.40
2023-05-21T05:05:03.544Z,13.40
2023-05-21T05:06:03.057Z,13.50
2023-05-21T05:07:03.588Z,13.50
2023-05-21T05:08:02.806Z,13.50
2023-05-21T05:09:02.904Z,13.60
2023-05-21T05:10:02.990Z,13.60
2023-05-21T05:11:02.648Z,13.70
2023-05-21T05:12:03.312Z,13.80
2023-05-21T05:13:03.297Z,14.00
2023-05-21T05:14:03.421Z,14.10
2023-05-21T05:15:03.487Z,14.20
2023-05-21T05:16:02.997Z,14.40
2023-05-21T05:17:02.900Z,14.60
2023-05-21T05:18:02.656Z,14.80
2023-05-21T05:19:03.352Z,15.00
2023-05-21T05:20:03.007Z,15.10
2023-05-21T05:21:02.707Z,15.30
2023-05-21T05:22:02.787Z,15.50
2023-05-21T05:23:03.492Z,15.70
2023-05-21T05:24:03.060Z,15.90
2023-05-21T05:25:03.589Z,16.00
2023-05-21T05:26:03.144Z,16.20
2023-05-21T05:27:02.751Z,16.30
2023-05-21T05:28:03.495Z,16.50
2023-05-21T05:29:03.155Z,16.60
2023-05-21T05:30:02.747Z,16.60
2023-05-21T05:31:03.439Z,16.70
2023-05-21T05:32:03.041Z,16.70
2023-05-21T05:33:02.773Z,16.70
2023-05-21T05:34:03.000Z,16.80
2023-05-21T05:35:03.578Z,16.80
2023-05-21T05:36:03.609Z,16.90
2023-05-21T05:37:02.703Z,16.90
2023-05-21T05:38:03.250Z,16.90
2023-05-21T05:39:03.028Z,17.00
2023-05-21T05:40:03.251Z,17.00
2023-05-21T05:41:02.791Z,17.00
2023-05-21T05:42:03.453Z,17.00
2023-05-21T05:43:03.643Z,17.00
2023-05-21T05:44:03.539Z,17.10
2023-05-21T05:45:03.108Z,17.10
2023-05-21T05:46:03.651Z,17.10
2023-05-21T05:47:03.143Z,17.10
2023-05-21T05:48:02.734Z,17.10
2023-05-21T05:49:03.379Z,17.10
2023-05-21T05:50:03.412Z,17.20
2023-05-21T05:51:03.637Z,17.20
2023-05-21T05:52:03.198Z,17.30
2023-05-21T05:53:03.327Z,17.30
2023-05-21T05:54:03.486Z,17.40
2023-05-21T05:55:03.405Z,17.40
2023-05-21T05:56:03.029Z,17.50
2023-05-21T05:57:02.986Z,17.50
2023-05-21T05:58:02.762Z,17.60
2023-05-21T05:59:03.540Z,17.70
2023-05-21T06:00:03.055Z,17.70
2023-05-21T06:01:02.746Z,17.80
2023-05-21T06:02:02.704Z,17.90
2023-05-21T06:03:03.420Z,17.90
2023-05-21T06:04:02.678Z,18.00
2023-05-21T06:05:02.748Z,18.10
2023-05-21T06:06:03.383Z,18.20
2023-05-21T06:07:02.993Z,18.20
2023-05-21T06:08:03.494Z,18.30
2023-05-21T06:09:03.014Z,18.30
2023-05-21T06:10:03.163Z,18.40
2023-05-21T06:11:03.115Z,18.50
2023-05-21T06:12:03.177Z,18.60
2023-05-21T06:13:02.840Z,18.70
2023-05-21T06:14:03.411Z,18.80
2023-05-21T06:15:02.926Z,18.90
2023-05-21T06:16:03.675Z,18.90
2023-05-21T06:17:02.788Z,18.90
2023-05-21T06:18:03.389Z,19.00
2023-05-21T06:19:03.041Z,19.00
2023-05-21T06:20:02.933Z,19.00
2023-05-21T06:21:03.413Z,19.00
2023-05-21T06:22:03.673Z,19.00
2023-05-21T06:23:03.074Z,19.10
2023-05-21T06:24:03.602Z,19.10
2023-05-21T06:25:03.197Z,19.10
2023-05-21T06:26:02.772Z,19.10
2023-05-21T06:27:03.537Z,19.20
2023-05-21T06:28:03.241Z,19.20
2023-05-21T06:29:02.821Z,19.20
2023-05-21T06:30:02.790Z,19.20
2023-05-21T06:31:02.819Z,19.20
2023-05-21T06:32:03.383Z,19.20
2023-05-21T06:33:02.997Z,19.20
2023-05-21T06:34:03.402Z,19.20
2023-05-21T06:35:03.552Z,19.20
2023-05-21T06:36:03.071Z,19.20
2023-05-21T06:37:03.107Z,19.20
2023-05-21T06:38:02.635Z,19.20
2023-05-21T06:39:02.736Z,19.30
2023-05-21T06:40:02.707Z,19.30
2023-05-21T06:41:02.854Z,19.30
2023-05-21T06:42:03.527Z,19.30
2023-05-21T06:43:03.064Z,19.30
2023-05-21T06:44:03.097Z,19.40
2023-05-21T06:45:03.655Z,19.40
2023-05-21T06:46:03.637Z,19.40
2023-05-21T06:47:02.739Z,19.50
2023-05-21T06:48:02.833Z,19.50
2023-05-21T06:49:02.965Z,19.60
2023-05-21T06:50:03.001Z,19.60
2023-05-21T06:51:03.621Z,19.70
2023-05-21T06:52:02.699Z,19.80
2023-05-21T06:53:03.395Z,19.80
2023-05-21T06:54:03.377Z,19.90
2023-05-21T06:55:03.588Z,19.90
2023-05-21T06:56:03.590Z,20.00
2023-05-21T06:57:03.157Z,20.00
2023-05-21T06:58:03.182Z,20.00
2023-05-21T06:59:03.079Z,20.00
2023-05-21T07:00:02.738Z,20.10
2023-05-21T07:01:03.389Z,20.10
2023-05-21T07:02:04.575Z,20.10
2023-05-21T07:03:03.119Z,20.10
2023-05-21T07:04:02.674Z,20.10
2023-05-21T07:05:03.288Z,20.10
2023-05-21T07:06:02.919Z,20.10
2023-05-21T07:07:03.540Z,20.00
2023-05-21T07:08:03.095Z,20.00
2023-05-21T07:09:03.068Z,20.00
2023-05-21T07:10:03.117Z,20.00
2023-05-21T07:11:03.176Z,20.00
2023-05-21T07:12:03.346Z,20.00
2023-05-21T07:13:02.860Z,20.00
2023-05-21T07:14:03.376Z,20.00
2023-05-21T07:15:03.519Z,20.00
2023-05-21T07:16:03.522Z,20.00
2023-05-21T07:17:03.371Z,20.00
2023-05-21T07:18:03.118Z,20.00
2023-05-21T07:19:03.421Z,20.10
2023-05-21T07:20:03.366Z,20.10
2023-05-21T07:21:02.884Z,20.10
2023-05-21T07:22:03.339Z,20.10
2023-05-21T07:23:03.275Z,20.10
2023-05-21T07:24:03.254Z,20.10
2023-05-21T07:25:03.266Z,20.10
2023-05-21T07:26:02.922Z,20.10
2023-05-21T07:27:06.585Z,20.20
2023-05-21T07:28:04.580Z,20.20
2023-05-21T07:29:02.744Z,20.30
2023-05-21T07:30:03.392Z,20.30
2023-05-21T07:31:03.379Z,20.40
2023-05-21T07:32:03.653Z,20.40
2023-05-21T07:33:03.282Z,20.40
2023-05-21T07:34:03.161Z,20.40
2023-05-21T07:35:03.455Z,20.40
2023-05-21T07:36:03.388Z,20.40
2023-05-21T07:37:03.130Z,20.40
2023-05-21T07:38:03.724Z,20.40
2023-05-21T07:39:02.648Z,20.40
2023-05-21T07:40:03.178Z,20.40
2023-05-21T07:41:02.746Z,20.40
2023-05-21T07:42:03.392Z,20.50
2023-05-21T07:43:03.146Z,20.50
2023-05-21T07:44:02.722Z,20.50
2023-05-21T07:45:03.415Z,20.60
2023-05-21T07:46:02.935Z,20.60
2023-05-21T07:47:03.638Z,20.60
2023-05-21T07:48:03.286Z,20.70
2023-05-21T07:49:03.337Z,20.70
2023-05-21T07:50:03.379Z,20.80
2023-05-21T07:51:03.445Z,20.80
2023-05-21T07:52:03.051Z,20.80
2023-05-21T07:53:02.698Z,20.90
2023-05-21T07:54:02.822Z,20.90
2023-05-21T07:55:03.574Z,21.00
2023-05-21T07:56:03.165Z,21.00
2023-05-21T07:57:03.371Z,21.10
2023-05-21T07:58:02.894Z,21.10
2023-05-21T07:59:03.452Z,21.20
2023-05-21T08:00:03.061Z,21.30
2023-05-21T08:01:03.164Z,21.40
2023-05-21T08:02:03.120Z,21.40
2023-05-21T08:03:02.956Z,21.50
2023-05-21T08:04:03.663Z,21.50
2023-05-21T08:05:03.035Z,21.60
2023-05-21T08:06:02.786Z,21.60
2023-05-21T08:07:03.294Z,21.70
2023-05-21T08:08:03.066Z,21.70
2023-05-21T08:09:03.584Z,21.70
2023-05-21T08:10:02.915Z,21.80
2023-05-21T08:11:03.181Z,21.80
2023-05-21T08:12:03.330Z,21.90
2023-05-21T08:13:03.270Z,21.90
2023-05-21T08:14:02.792Z,21.90
2023-05-21T08:15:03.417Z,22.00
2023-05-21T08:16:03.358Z,22.00
2023-05-21T08:17:03.473Z,22.00
2023-05-21T08:18:03.108Z,22.00
2023-05-21T08:19:02.952Z,22.00
2023-05-21T08:20:03.020Z,22.00
2023-05-21T08:21:02.706Z,22.10
2023-05-21T08:22:03.294Z,22.10
2023-05-21T08:23:02.974Z,22.20
2023-05-21T08:24:02.664Z,22.20
2023-05-21T08:25:02.805Z,22.20
2023-05-21T08:26:02.778Z,22.30
2023-05-21T08:27:03.506Z,22.30
2023-05-21T08:28:03.454Z,22.30
2023-05-21T08:29:03.103Z,22.40
2023-05-21T08:30:02.859Z,22.40
2023-05-21T08:31:03.506Z,22.40
2023-05-21T08:32:03.566Z,22.40
2023-05-21T08:33:02.933Z,22.50
2023-05-21T08:34:03.480Z,22.50
2023-05-21T08:35:03.031Z,22.60
2023-05-21T08:36:02.783Z,22.70
2023-05-21T08:37:02.778Z,22.70
2023-05-21T08:38:03.275Z,22.80
2023-05-21T08:39:02.863Z,22.90
2023-05-21T08:40:03.527Z,23.00
2023-05-21T08:41:03.138Z,23.00
2023-05-21T08:42:02.808Z,23.10
2023-05-21T08:43:02.837Z,23.10
2023-05-21T08:44:03.473Z,23.20
2023-05-21T08:45:02.944Z,23.30
2023-05-21T08:46:02.713Z,23.30
2023-05-21T08:47:03.315Z,23.40
2023-05-21T08:48:02.970Z,23.40
2023-05-21T08:49:03.514Z,23.40
2023-05-21T08:50:03.043Z,23.50
2023-05-21T08:51:02.621Z,23.50
2023-05-21T08:52:03.295Z,23.50
2023-05-21T08:53:07.430Z,23.50
2023-05-21T08:54:02.895Z,23.50
2023-05-21T08:55:03.633Z,23.50
2023-05-21T08:56:03.508Z,23.50
2023-05-21T08:57:03.340Z,23.50
2023-05-21T08:58:03.310Z,23.60
2023-05-21T08:59:03.294Z,23.60
2023-05-21T09:00:03.380Z,23.60
2023-05-21T09:01:02.973Z,23.60
2023-05-21T09:02:02.655Z,23.60
2023-05-21T09:03:02.817Z,23.60
2023-05-21T09:04:12.620Z,23.60
2023-05-21T09:05:03.673Z,23.60
2023-05-21T09:06:03.165Z,23.70
2023-05-21T09:07:03.227Z,23.70
2023-05-21T09:08:02.814Z,23.70
2023-05-21T09:09:03.470Z,23.70
2023-05-21T09:10:03.147Z,23.70
2023-05-21T09:11:03.176Z,23.70
2023-05-21T09:12:02.848Z,23.70
2023-05-21T09:13:03.334Z,23.70
2023-05-21T09:14:03.181Z,23.70
2023-05-21T09:15:03.310Z,23.70
2023-05-21T09:16:03.085Z,23.70
2023-05-21T09:17:02.812Z,23.80
2023-05-21T09:18:03.390Z,23.80
2023-05-21T09:19:04.558Z,23.80
2023-05-21T09:20:03.109Z,23.80
2023-05-21T09:21:02.701Z,23.90
2023-05-21T09:22:03.377Z,23.90
2023-05-21T09:23:03.092Z,23.90
2023-05-21T09:24:02.615Z,24.00
2023-05-21T09:25:03.268Z,24.00
2023-05-21T09:26:02.982Z,24.10
2023-05-21T09:27:03.531Z,24.10
2023-05-21T09:28:03.204Z,24.10
2023-05-21T09:29:03.223Z,24.20
2023-05-21T09:30:02.923Z,24.20
2023-05-21T09:31:03.545Z,24.30
2023-05-21T09:32:03.238Z,24.30
2023-05-21T09:33:02.972Z,24.40
2023-05-21T09:34:03.018Z,24.40
2023-05-21T09:35:03.519Z,24.50
2023-05-21T09:36:03.168Z,24.50
2023-05-21T09:37:03.774Z,24.60
2023-05-21T09:38:03.199Z,24.60
2023-05-21T09:39:02.837Z,24.70
2023-05-21T09:40:02.887Z,24.70
2023-05-21T09:41:03.395Z,24.80
2023-05-21T09:42:03.336Z,24.80
2023-05-21T09:43:03.381Z,24.80
2023-05-21T09:44:02.971Z,24.90
2023-05-21T09:45:03.441Z,24.90
2023-05-21T09:46:02.629Z,24.90
2023-05-21T09:47:03.295Z,24.90
2023-05-21T09:48:02.848Z,24.90
2023-05-21T09:49:02.953Z,24.90
2023-05-21T09:50:03.571Z,24.90
2023-05-21T09:51:03.212Z,24.90
2023-05-21T09:52:03.452Z,24.90
2023-05-21T09:53:03.177Z,25.00
2023-05-21T09:54:02.830Z,25.00
2023-05-21T09:55:03.017Z,25.00
2023-05-21T09:56:03.582Z,25.00
2023-05-21T09:57:03.494Z,25.00
2023-05-21T09:58:03.070Z,25.10
2023-05-21T09:59:02.631Z,25.10
2023-05-21T10:00:02.684Z,25.10
2023-05-21T10:01:02.772Z,25.20
2023-05-21T10:02:03.373Z,25.20
2023-05-21T10:03:03.204Z,25.20
2023-05-21T10:04:03.187Z,25.30
2023-05-21T10:05:02.676Z,25.30
2023-05-21T10:06:03.225Z,25.30
2023-05-21T10:07:02.951Z,25.40
2023-05-21T10:08:02.979Z,25.40
2023-05-21T10:09:04.827Z,25.50
2023-05-21T10:10:03.003Z,25.50
2023-05-21T10:11:03.689Z,25.60
2023-05-21T10:12:02.683Z,25.60
2023-05-21T10:13:03.251Z,25.60
2023-05-21T10:14:03.454Z,25.60
2023-05-21T10:15:03.101Z,25.70
2023-05-21T10:16:02.877Z,25.80
2023-05-21T10:17:02.886Z,25.80
2023-05-21T10:18:03.667Z,25.90
2023-05-21T10:19:03.414Z,25.90
2023-05-21T10:20:03.568Z,26.00
2023-05-21T10:21:03.072Z,26.00
2023-05-21T10:22:02.944Z,26.00
2023-05-21T10:23:03.629Z,26.10
2023-05-21T10:24:03.429Z,26.10
2023-05-21T10:25:02.890Z,26.10
2023-05-21T10:26:02.932Z,26.10
2023-05-21T10:27:02.856Z,26.20
2023-05-21T10:28:03.534Z,26.20
2023-05-21T10:29:03.248Z,26.30
2023-05-21T10:30:02.868Z,26.30
2023-05-21T10:31:03.458Z,26.30
2023-05-21T10:32:03.076Z,26.40
2023-05-21T10:33:03.211Z,26.50
2023-05-21T10:34:03.002Z,26.50
2023-05-21T10:35:03.227Z,26.60
2023-05-21T10:36:02.896Z,26.60
2023-05-21T10:37:03.014Z,26.70
2023-05-21T10:38:03.609Z,26.80
2023-05-21T10:39:02.750Z,26.80
2023-05-21T10:40:03.312Z,26.80
2023-05-21T10:41:03.447Z,26.80
2023-05-21T10:42:02.757Z,26.80
2023-05-21T10:43:03.300Z,26.80
2023-05-21T10:44:02.805Z,26.80
2023-05-21T10:45:03.447Z,26.80
2023-05-21T10:46:03.400Z,26.80
2023-05-21T10:47:03.101Z,26.80
2023-05-21T10:48:02.692Z,26.80
2023-05-21T10:49:02.846Z,26.80
2023-05-21T10:50:03.531Z,26.90
2023-05-21T10:51:03.074Z,26.90
2023-05-21T10:52:03.882Z,26.90
2023-05-21T10:53:03.218Z,26.90
2023-05-21T10:54:03.374Z,26.90
2023-05-21T10:55:02.796Z,26.90
2023-05-21T10:56:03.524Z,26.90
2023-05-21T10:57:03.040Z,26.90
2023-05-21T10:58:03.160Z,26.90
2023-05-21T10:59:02.680Z,27.00
2023-05-21T11:00:03.464Z,27.00
2023-05-21T11:01:03.338Z,27.00
2023-05-21T11:02:03.101Z,27.00
2023-05-21T11:03:03.429Z,27.00
2023-05-21T11:04:03.081Z,27.00
2023-05-21T11:05:02.662Z,27.00
2023-05-21T11:06:03.333Z,27.00
2023-05-21T11:07:02.836Z,27.00
2023-05-21T11:08:03.429Z,27.00
2023-05-21T11:09:03.362Z,26.90
2023-05-21T11:10:03.487Z,26.90
2023-05-21T11:11:03.005Z,26.90
2023-05-21T11:12:02.731Z,26.90
2023-05-21T11:13:02.669Z,26.90
2023-05-21T11:14:03.358Z,27.00
2023-05-21T11:15:03.165Z,26.90
2023-05-21T11:16:03.117Z,26.90
2023-05-21T11:17:02.871Z,26.90
2023-05-21T11:18:02.917Z,26.90
2023-05-21T11:19:03.627Z,27.00
2023-05-21T11:20:03.252Z,27.00
2023-05-21T11:21:03.542Z,27.10
2023-05-21T11:22:03.134Z,27.10
2023-05-21T11:23:02.652Z,27.10
2023-05-21T11:24:03.364Z,27.20
2023-05-21T11:25:03.085Z,27.20
2023-05-21T11:26:03.574Z,27.20
2023-05-21T11:27:02.740Z,27.30
2023-05-21T11:28:03.232Z,27.40
2023-05-21T11:29:02.850Z,27.40
2023-05-21T11:30:02.803Z,27.40
2023-05-21T11:31:03.455Z,27.50
2023-05-21T11:32:03.090Z,27.50
2023-05-21T11:33:02.820Z,27.50
2023-05-21T11:34:03.429Z,27.60
2023-05-21T11:35:02.954Z,27.60
2023-05-21T11:36:02.618Z,27.60
2023-05-21T11:37:02.624Z,27.60
2023-05-21T11:38:03.362Z,27.60
2023-05-21T11:39:02.969Z,27.70
2023-05-21T11:40:03.620Z,27.70
2023-05-21T11:41:03.139Z,27.70
2023-05-21T11:42:04.551Z,27.70
2023-05-21T11:43:03.254Z,27.70
2023-05-21T11:44:02.808Z,27.70
2023-05-21T11:45:03.425Z,27.80
2023-05-21T11:46:03.145Z,27.80
2023-05-21T11:47:02.893Z,27.80
2023-05-21T11:48:03.597Z,27.80
2023-05-21T11:49:03.426Z,27.90
2023-05-21T11:50:03.049Z,27.90
2023-05-21T11:51:02.941Z,27.90
2023-05-21T11:52:03.531Z,27.90
2023-05-21T11:53:03.155Z,27.90
2023-05-21T11:54:03.203Z,27.90
2023-05-21T11:55:02.923Z,27.80
2023-05-21T11:56:03.470Z,27.80
2023-05-21T11:57:03.471Z,27.80
2023-05-21T11:58:03.245Z,27.70
2023-05-21T11:59:02.891Z,27.70
2023-05-21T12:00:03.639Z,27.60
2023-05-21T12:01:02.983Z,27.60
2023-05-21T12:02:02.940Z,27.50
2023-05-21T12:03:03.629Z,27.50
2023-05-21T12:04:02.757Z,27.50
2023-05-21T12:05:02.835Z,27.40
2023-05-21T12:06:03.494Z,27.40
2023-05-21T12:07:02.977Z,27.30
2023-05-21T12:08:03.435Z,27.30
2023-05-21T12:09:02.992Z,27.30
2023-05-21T12:10:02.701Z,27.20
2023-05-21T12:11:03.194Z,27.20
2023-05-21T12:12:03.303Z,27.20
2023-05-21T12:13:03.211Z,27.30
2023-05-21T12:14:03.362Z,27.30
2023-05-21T12:15:02.955Z,27.30
2023-05-21T12:16:05.944Z,27.40
2023-05-21T12:17:03.091Z,27.40
2023-05-21T12:18:03.169Z,27.40
2023-05-21T12:19:03.401Z,27.40
2023-05-21T12:20:03.032Z,27.40
2023-05-21T12:21:03.598Z,27.40
2023-05-21T12:22:03.201Z,27.50
2023-05-21T12:23:02.866Z,27.50
2023-05-21T12:24:03.439Z,27.50
2023-05-21T12:25:03.538Z,27.50
2023-05-21T12:26:03.613Z,27.50
2023-05-21T12:27:03.175Z,27.50
2023-05-21T12:28:03.197Z,27.50
2023-05-21T12:29:03.280Z,27.50
2023-05-21T12:30:02.904Z,27.50
2023-05-21T12:31:03.430Z,27.50
2023-05-21T12:32:03.067Z,27.50
2023-05-21T12:33:02.802Z,27.50
2023-05-21T12:34:02.777Z,27.50
2023-05-21T12:35:02.850Z,27.50
2023-05-21T12:36:02.940Z,27.50
2023-05-21T12:37:03.522Z,27.50
2023-05-21T12:38:03.596Z,27.50
2023-05-21T12:39:03.160Z,27.50
2023-05-21T12:40:03.300Z,27.50
2023-05-21T12:41:02.845Z,27.50
2023-05-21T12:42:03.405Z,27.50
2023-05-21T12:43:03.152Z,27.50
2023-05-21T12:44:03.106Z,27.50
2023-05-21T12:45:03.151Z,27.50
2023-05-21T12:46:03.286Z,27.50
2023-05-21T12:47:03.584Z,27.50
2023-05-21T12:48:03.618Z,27.50
2023-05-21T12:49:03.409Z,27.50
2023-05-21T12:50:03.045Z,27.50
2023-05-21T12:51:03.044Z,27.40
2023-05-21T12:52:03.134Z,27.40